createdAt,value
2017-10-30T00:01:35.170Z,55.20
2017-10-30T00:04:04.007Z,56.10
2017-10-30T00:06:32.066Z,55.70
2017-10-30T00:09:00.116Z,55.10
2017-10-30T00:11:28.933Z,56.50
2017-10-30T00:13:56.981Z,55.00
2017-10-30T00:16:25.042Z,56.00
2017-10-30T00:18:53.498Z,54.80
2017-10-30T00:21:21.570Z,55.40
2017-10-30T00:23:49.619Z,55.20
2017-10-30T00:26:17.666Z,55.80
2017-10-30T00:28:45.742Z,55.20
2017-10-30T00:31:13.798Z,54.90
2017-10-30T00:33:41.900Z,56.70
2017-10-30T00:36:10.688Z,55.90
2017-10-30T00:38:38.763Z,55.40
2017-10-30T00:41:06.810Z,55.60
2017-10-30T00:43:34.857Z,55.40
2017-10-30T00:48:32.246Z,55.10
2017-10-30T00:51:00.313Z,55.50
2017-10-30T00:53:28.361Z,55.40
2017-10-30T00:55:57.190Z,55.90
2017-10-30T00:58:25.263Z,55.20
2017-10-30T01:00:53.319Z,54.60
2017-10-30T01:03:21.814Z,56.10
2017-10-30T01:05:49.879Z,55.30
2017-10-30T01:08:17.925Z,55.10
2017-10-30T01:10:46.758Z,55.40
2017-10-30T01:13:15.214Z,55.30
2017-10-30T01:15:43.261Z,54.80
2017-10-30T01:20:41.080Z,53.60
2017-10-30T01:23:09.891Z,53.90
2017-10-30T01:25:37.953Z,53.90
2017-10-30T01:28:06.014Z,54.10
2017-10-30T01:30:34.085Z,53.80
2017-10-30T01:33:02.138Z,54.10
2017-10-30T01:35:30.188Z,54.00
2017-10-30T01:37:58.262Z,54.60
2017-10-30T01:40:27.074Z,55.80
2017-10-30T01:42:55.134Z,54.40
2017-10-30T01:45:23.968Z,56.00
2017-10-30T01:47:52.021Z,55.00
2017-10-30T01:50:20.082Z,55.10
2017-10-30T01:52:48.133Z,55.10
2017-10-30T01:55:16.969Z,55.90
2017-10-30T01:57:45.032Z,55.00
2017-10-30T02:00:13.078Z,55.20
2017-10-30T02:02:41.148Z,55.50
2017-10-30T02:07:38.549Z,56.30
2017-10-30T02:10:06.586Z,55.40
2017-10-30T02:12:35.434Z,56.60
2017-10-30T02:15:03.484Z,55.90
2017-10-30T02:17:31.529Z,55.60
2017-10-30T02:19:59.995Z,56.40
2017-10-30T02:22:28.822Z,55.90
2017-10-30T02:24:56.882Z,55.50
2017-10-30T02:27:24.930Z,56.00
2017-10-30T02:29:53.766Z,57.00
2017-10-30T02:32:21.845Z,56.90
2017-10-30T02:34:49.881Z,57.30
2017-10-30T02:37:17.934Z,56.50
2017-10-30T02:39:46.759Z,57.60
2017-10-30T02:42:14.806Z,56.90
2017-10-30T02:44:42.882Z,57.40
2017-10-30T02:47:10.934Z,57.90
2017-10-30T02:49:39.746Z,57.90
2017-10-30T02:52:07.810Z,57.20
2017-10-30T02:54:35.859Z,57.50
2017-10-30T02:57:03.926Z,57.10
2017-10-30T02:59:32.398Z,57.10
2017-10-30T03:02:00.451Z,57.00
2017-10-30T03:04:28.521Z,57.30
2017-10-30T03:06:57.718Z,57.30
2017-10-30T03:09:25.785Z,56.90
2017-10-30T03:11:54.230Z,57.70
2017-10-30T03:14:22.297Z,57.50
2017-10-30T03:16:51.518Z,56.30
2017-10-30T03:19:20.310Z,57.30
2017-10-30T03:21:49.129Z,56.70
2017-10-30T03:24:17.177Z,56.80
2017-10-30T03:26:46.018Z,56.80
2017-10-30T03:29:14.834Z,58.60
2017-10-30T03:31:43.651Z,57.50
2017-10-30T03:34:11.718Z,57.00
2017-10-30T03:36:39.771Z,57.20
2017-10-30T03:39:07.834Z,58.00
2017-10-30T03:41:35.906Z,56.90
2017-10-30T03:44:03.949Z,57.80
2017-10-30T03:46:31.999Z,57.50
2017-10-30T03:49:00.068Z,56.90
2017-10-30T03:51:28.527Z,58.10
2017-10-30T03:53:56.586Z,57.90
2017-10-30T03:56:24.630Z,58.40
2017-10-30T03:58:53.102Z,58.10
2017-10-30T04:01:21.142Z,57.80
2017-10-30T04:03:49.207Z,57.20
2017-10-30T04:06:17.252Z,58.20
2017-10-30T04:08:45.321Z,57.40
2017-10-30T04:11:13.382Z,57.90
2017-10-30T04:13:41.438Z,58.50
2017-10-30T04:16:09.502Z,57.40
2017-10-30T04:18:38.322Z,58.70
2017-10-30T04:21:06.374Z,57.00
2017-10-30T04:23:35.202Z,57.60
2017-10-30T04:26:03.250Z,56.90
2017-10-30T04:28:31.326Z,57.30
2017-10-30T04:30:59.370Z,57.40
2017-10-30T04:33:28.190Z,57.10
2017-10-30T04:35:57.035Z,57.10
2017-10-30T04:38:25.086Z,57.40
2017-10-30T04:40:53.139Z,57.70
2017-10-30T04:43:21.204Z,58.70
2017-10-30T04:45:49.250Z,58.20
2017-10-30T04:48:18.082Z,59.60
2017-10-30T04:50:46.153Z,58.20
2017-10-30T04:53:14.203Z,58.70
2017-10-30T04:55:42.300Z,59.00
2017-10-30T04:58:10.333Z,59.40
2017-10-30T05:00:39.155Z,59.10
2017-10-30T05:03:07.218Z,58.30
2017-10-30T05:05:35.273Z,59.30
2017-10-30T05:08:03.347Z,59.00
2017-10-30T05:10:31.403Z,58.50
2017-10-30T05:13:00.217Z,59.50
2017-10-30T05:15:28.282Z,58.60
2017-10-30T05:17:56.347Z,58.60
2017-10-30T05:20:24.427Z,58.70
2017-10-30T05:22:52.466Z,57.70
2017-10-30T05:25:21.306Z,57.80
2017-10-30T05:27:49.750Z,58.20
2017-10-30T05:30:17.798Z,58.00
2017-10-30T05:32:45.866Z,59.60
2017-10-30T05:35:14.696Z,58.00
2017-10-30T05:37:42.742Z,58.60
2017-10-30T05:40:11.579Z,58.40
2017-10-30T05:42:39.630Z,57.70
2017-10-30T05:45:07.682Z,57.60
2017-10-30T05:47:36.510Z,59.40
2017-10-30T05:50:04.578Z,58.80
2017-10-30T05:52:32.652Z,58.00
2017-10-30T05:55:00.702Z,58.20
2017-10-30T05:57:28.747Z,57.80
2017-10-30T05:59:57.590Z,58.30
2017-10-30T06:02:25.639Z,58.00
2017-10-30T06:04:53.697Z,57.50
2017-10-30T06:07:22.539Z,58.00
2017-10-30T06:09:51.341Z,57.40
2017-10-30T06:12:20.167Z,57.00
2017-10-30T06:14:48.258Z,57.00
2017-10-30T06:17:16.318Z,58.30
2017-10-30T06:19:44.371Z,56.00
2017-10-30T06:22:13.574Z,55.10
2017-10-30T06:27:10.966Z,56.00
2017-10-30T06:29:39.014Z,55.80
2017-10-30T06:32:07.842Z,56.70
2017-10-30T06:34:35.905Z,56.60
2017-10-30T06:37:03.961Z,56.20
2017-10-30T06:39:32.029Z,57.10
2017-10-30T06:42:00.095Z,56.30
2017-10-30T06:44:28.910Z,55.20
2017-10-30T06:46:56.974Z,55.30
2017-10-30T06:49:25.058Z,55.60
2017-10-30T06:51:54.250Z,56.80
2017-10-30T06:54:22.339Z,55.60
2017-10-30T06:56:50.787Z,55.90
2017-10-30T06:59:18.841Z,55.90
2017-10-30T07:01:47.658Z,56.00
2017-10-30T07:04:15.727Z,55.40
2017-10-30T07:06:43.778Z,54.80
2017-10-30T07:09:12.612Z,55.30
2017-10-30T07:11:40.666Z,54.10
2017-10-30T07:14:08.734Z,54.60
2017-10-30T07:16:37.174Z,54.10
2017-10-30T07:19:05.646Z,54.40
2017-10-30T07:21:33.701Z,54.20
2017-10-30T07:24:02.163Z,54.40
2017-10-30T07:26:30.221Z,54.30
2017-10-30T07:28:59.417Z,55.00
2017-10-30T07:31:28.246Z,53.30
2017-10-30T07:33:56.322Z,53.50
2017-10-30T07:36:24.384Z,50.90
2017-10-30T07:38:53.197Z,51.10
2017-10-30T07:41:21.282Z,50.10
2017-10-30T07:43:49.306Z,50.20
2017-10-30T07:46:17.376Z,50.40
2017-10-30T07:48:45.477Z,49.30
2017-10-30T07:51:13.498Z,48.30
2017-10-30T07:53:41.571Z,46.50
2017-10-30T07:56:09.623Z,44.80
2017-10-30T07:58:38.451Z,45.90
2017-10-30T08:01:06.503Z,46.70
2017-10-30T08:03:35.288Z,45.80
2017-10-30T08:06:03.354Z,48.20
2017-10-30T08:08:31.786Z,46.70
2017-10-30T08:10:59.846Z,47.60
2017-10-30T08:13:28.662Z,47.80
2017-10-30T08:15:56.741Z,46.90
2017-10-30T08:18:24.786Z,45.70
2017-10-30T08:20:52.838Z,45.70
2017-10-30T08:23:20.903Z,45.60
2017-10-30T08:25:48.948Z,46.60
2017-10-30T08:28:17.034Z,46.90
2017-10-30T08:30:45.520Z,48.40
2017-10-30T08:33:13.571Z,48.90
2017-10-30T08:35:42.416Z,49.50
2017-10-30T08:38:10.462Z,48.00
2017-10-30T08:40:39.652Z,48.00
2017-10-30T08:43:07.718Z,44.80
2017-10-30T08:45:35.766Z,44.20
2017-10-30T08:48:04.591Z,45.10
2017-10-30T08:50:32.658Z,45.70
2017-10-30T08:53:00.710Z,46.00
2017-10-30T08:55:28.770Z,45.60
2017-10-30T08:57:57.591Z,43.50
2017-10-30T09:00:26.435Z,39.20
2017-10-30T09:02:55.284Z,39.70
2017-10-30T09:05:23.716Z,40.80
2017-10-30T09:07:52.164Z,42.00
2017-10-30T09:10:20.218Z,41.70
2017-10-30T09:12:48.297Z,41.70
2017-10-30T09:15:16.346Z,41.10
2017-10-30T09:17:44.421Z,42.10
2017-10-30T09:20:12.475Z,42.90
2017-10-30T09:22:40.921Z,42.10
2017-10-30T09:27:39.063Z,42.60
2017-10-30T09:30:07.125Z,42.50
2017-10-30T09:32:35.194Z,42.30
2017-10-30T09:35:03.258Z,42.10
2017-10-30T09:37:32.438Z,41.80
2017-10-30T09:40:01.274Z,41.70
2017-10-30T09:42:29.319Z,42.00
2017-10-30T09:44:57.393Z,39.80
2017-10-30T09:47:25.462Z,37.80
2017-10-30T09:52:23.242Z,39.10
2017-10-30T09:54:51.290Z,39.20
2017-10-30T09:57:20.130Z,39.90
2017-10-30T09:59:48.579Z,39.20
2017-10-30T10:02:16.630Z,38.90
2017-10-30T10:04:45.458Z,39.60
2017-10-30T10:07:13.537Z,37.20
2017-10-30T10:09:41.606Z,37.60
2017-10-30T10:12:09.654Z,38.30
2017-10-30T10:14:37.726Z,37.40
2017-10-30T10:17:05.774Z,37.70
2017-10-30T10:19:34.986Z,36.70
2017-10-30T10:22:03.447Z,36.80
2017-10-30T10:24:31.494Z,38.50
2017-10-30T10:26:59.557Z,38.20
2017-10-30T10:29:27.614Z,37.20
2017-10-30T10:31:55.702Z,36.40
2017-10-30T10:34:24.522Z,34.90
2017-10-30T10:36:52.584Z,33.60
2017-10-30T10:39:20.655Z,32.90
2017-10-30T10:41:48.746Z,32.80
2017-10-30T10:44:17.578Z,32.40
2017-10-30T10:46:45.639Z,33.80
2017-10-30T10:49:14.475Z,34.00
2017-10-30T10:51:42.555Z,32.80
2017-10-30T10:54:11.030Z,31.60
2017-10-30T10:56:39.086Z,31.30
2017-10-30T10:59:07.905Z,27.20
2017-10-30T11:01:35.978Z,24.90
2017-10-30T11:04:04.432Z,25.00
2017-10-30T11:06:32.515Z,24.30
2017-10-30T11:09:01.704Z,25.50
2017-10-30T11:11:29.758Z,26.60
2017-10-30T11:13:58.598Z,27.30
2017-10-30T11:16:27.426Z,29.20
2017-10-30T11:18:55.894Z,29.00
2017-10-30T11:21:23.954Z,28.60
2017-10-30T11:23:52.787Z,29.60
2017-10-30T11:26:20.864Z,29.20
2017-10-30T11:28:48.922Z,28.70
2017-10-30T11:31:16.995Z,25.70
2017-10-30T11:33:45.071Z,21.10
2017-10-30T11:36:13.122Z,17.90
2017-10-30T11:38:41.166Z,16.40
2017-10-30T11:41:09.998Z,15.90
2017-10-30T11:43:38.065Z,15.10
2017-10-30T11:46:06.122Z,14.10
2017-10-30T11:48:34.942Z,13.80
2017-10-30T11:51:02.994Z,13.40
2017-10-30T11:53:31.062Z,13.90
2017-10-30T11:55:59.130Z,13.50
2017-10-30T11:58:27.204Z,12.90
2017-10-30T12:00:55.646Z,12.70
2017-10-30T12:03:24.486Z,15.00
2017-10-30T12:05:52.536Z,13.90
2017-10-30T12:08:20.616Z,14.10
2017-10-30T12:10:49.434Z,13.50
2017-10-30T12:13:17.482Z,11.30
2017-10-30T12:15:45.941Z,11.50
2017-10-30T12:18:13.998Z,11.80
2017-10-30T12:20:42.835Z,12.70
2017-10-30T12:23:10.886Z,12.90
2017-10-30T12:25:38.942Z,15.10
2017-10-30T12:28:08.514Z,17.40
2017-10-30T12:30:36.571Z,19.00
2017-10-30T12:33:05.403Z,19.30
2017-10-30T12:35:34.602Z,20.50
2017-10-30T12:38:03.055Z,20.60
2017-10-30T12:43:01.198Z,22.50
2017-10-30T12:45:29.264Z,20.30
2017-10-30T12:47:57.706Z,20.60
2017-10-30T12:50:26.170Z,19.20
2017-10-30T12:52:54.631Z,20.70
2017-10-30T12:55:22.687Z,21.50
2017-10-30T12:57:50.769Z,22.10
2017-10-30T13:00:18.853Z,22.80
2017-10-30T13:02:46.878Z,21.90
2017-10-30T13:05:15.714Z,23.00
2017-10-30T13:07:44.544Z,23.70
2017-10-30T13:10:12.605Z,23.00
2017-10-30T13:12:40.658Z,23.70
2017-10-30T13:15:08.819Z,23.70
2017-10-30T13:17:37.598Z,24.40
2017-10-30T13:20:05.672Z,24.20
2017-10-30T13:22:33.751Z,25.00
2017-10-30T13:25:01.777Z,23.70
2017-10-30T13:27:30.238Z,25.00
2017-10-30T13:29:58.290Z,26.20
2017-10-30T13:32:26.765Z,25.00
2017-10-30T13:34:54.817Z,26.00
2017-10-30T13:37:22.875Z,25.10
2017-10-30T13:39:50.972Z,26.10
2017-10-30T13:42:19.031Z,26.50
2017-10-30T13:44:47.110Z,26.60
2017-10-30T13:47:15.941Z,27.40
2017-10-30T13:49:44.013Z,27.40
2017-10-30T13:52:12.066Z,27.40
2017-10-30T13:54:40.122Z,27.60
2017-10-30T13:57:08.190Z,27.90
2017-10-30T13:59:36.270Z,27.50
2017-10-30T14:02:04.717Z,27.00
2017-10-30T14:04:32.770Z,27.60
2017-10-30T14:07:01.610Z,29.20
2017-10-30T14:09:29.668Z,27.00
2017-10-30T14:11:57.722Z,27.90
2017-10-30T14:14:26.666Z,27.40
2017-10-30T14:16:55.126Z,28.70
2017-10-30T14:19:23.194Z,29.20
2017-10-30T14:21:52.661Z,28.20
2017-10-30T14:24:21.490Z,28.20
2017-10-30T14:26:49.546Z,28.00
2017-10-30T14:29:17.613Z,28.00
2017-10-30T14:31:45.669Z,28.90
2017-10-30T14:34:13.726Z,28.10
2017-10-30T14:36:42.563Z,28.90
2017-10-30T14:39:11.386Z,28.50
2017-10-30T14:41:39.453Z,27.90
2017-10-30T14:44:09.030Z,28.80
2017-10-30T14:46:37.102Z,28.00
2017-10-30T14:49:05.149Z,27.50
2017-10-30T14:51:33.601Z,27.80
2017-10-30T14:56:31.001Z,28.50
2017-10-30T14:58:59.051Z,29.30
2017-10-30T15:01:27.890Z,28.90
2017-10-30T15:03:56.342Z,28.80
2017-10-30T15:06:24.390Z,30.50
2017-10-30T15:08:53.233Z,29.70
2017-10-30T15:11:21.293Z,30.00
2017-10-30T15:13:49.365Z,30.70
2017-10-30T15:16:17.822Z,29.40
2017-10-30T15:18:45.874Z,30.20
2017-10-30T15:21:14.711Z,30.00
2017-10-30T15:23:43.530Z,30.90
2017-10-30T15:26:11.604Z,30.50
2017-10-30T15:28:39.658Z,31.10
2017-10-30T15:31:07.718Z,30.40
2017-10-30T15:33:36.199Z,30.50
2017-10-30T15:36:04.262Z,32.60
2017-10-30T15:41:01.636Z,31.80
2017-10-30T15:43:29.698Z,32.10
2017-10-30T15:45:58.571Z,32.30
2017-10-30T15:48:27.031Z,32.00
2017-10-30T15:50:55.496Z,31.30
2017-10-30T15:53:23.562Z,31.50
2017-10-30T15:58:21.730Z,34.10
2017-10-30T16:00:50.542Z,33.20
2017-10-30T16:03:18.636Z,33.20
2017-10-30T16:05:46.783Z,33.20
2017-10-30T16:08:15.644Z,33.70
2017-10-30T16:10:43.708Z,32.00
2017-10-30T16:13:11.767Z,32.80
2017-10-30T16:15:40.960Z,35.70
2017-10-30T16:18:09.798Z,35.00
2017-10-30T16:20:37.846Z,34.20
2017-10-30T16:23:05.894Z,36.10
2017-10-30T16:25:33.958Z,34.20
2017-10-30T16:28:02.406Z,35.20
2017-10-30T16:30:30.462Z,33.80
2017-10-30T16:32:58.542Z,35.10
2017-10-30T16:35:26.619Z,34.40
2017-10-30T16:37:54.678Z,34.30
2017-10-30T16:40:22.733Z,34.10
2017-10-30T16:42:50.802Z,35.20
2017-10-30T16:45:18.858Z,34.40
2017-10-30T16:47:46.929Z,34.70
2017-10-30T16:50:14.985Z,35.20
2017-10-30T16:52:43.821Z,34.80
2017-10-30T16:55:11.878Z,34.40
2017-10-30T16:57:39.958Z,33.70
2017-10-30T17:00:08.018Z,34.50
2017-10-30T17:02:36.105Z,35.70
2017-10-30T17:05:04.902Z,35.60
2017-10-30T17:07:32.966Z,33.80
2017-10-30T17:10:01.026Z,36.30
2017-10-30T17:12:29.078Z,34.40
2017-10-30T17:14:57.129Z,34.30
2017-10-30T17:17:25.963Z,37.20
2017-10-30T17:19:54.018Z,36.60
2017-10-30T17:22:22.085Z,35.40
2017-10-30T17:24:50.162Z,34.90
2017-10-30T17:27:18.211Z,36.00
2017-10-30T17:29:47.050Z,36.10
2017-10-30T17:34:44.426Z,36.00
2017-10-30T17:37:12.488Z,36.20
2017-10-30T17:39:40.541Z,35.70
2017-10-30T17:42:08.614Z,35.20
2017-10-30T17:44:37.074Z,34.10
2017-10-30T17:49:34.860Z,36.20
2017-10-30T17:52:03.694Z,34.90
2017-10-30T17:54:31.758Z,35.30
2017-10-30T17:56:59.843Z,35.40
2017-10-30T17:59:28.303Z,34.50
2017-10-30T18:01:56.395Z,36.30
2017-10-30T18:04:24.462Z,35.60
2017-10-30T18:06:52.918Z,35.60
2017-10-30T18:09:20.991Z,34.60
2017-10-30T18:14:18.379Z,36.40
2017-10-30T18:16:48.307Z,34.30
2017-10-30T18:19:16.363Z,34.90
2017-10-30T18:21:44.426Z,34.60
2017-10-30T18:24:12.499Z,35.60
2017-10-30T18:26:40.975Z,36.10
2017-10-30T18:29:09.422Z,34.60
2017-10-30T18:31:38.981Z,36.60
2017-10-30T18:34:07.056Z,35.60
2017-10-30T18:36:35.138Z,35.10
2017-10-30T18:39:03.206Z,34.80
2017-10-30T18:41:31.276Z,36.20
2017-10-30T18:43:59.714Z,37.00
2017-10-30T18:46:28.172Z,37.60
2017-10-30T18:48:57.453Z,38.70
2017-10-30T18:51:25.914Z,38.70
2017-10-30T18:53:53.957Z,38.80
2017-10-30T18:56:22.022Z,39.80
2017-10-30T18:58:50.094Z,40.30
2017-10-30T19:01:18.546Z,39.30
2017-10-30T19:03:47.386Z,39.60
2017-10-30T19:06:16.201Z,40.40
2017-10-30T19:08:45.781Z,41.00
2017-10-30T19:11:13.821Z,40.00
2017-10-30T19:13:42.658Z,40.60
2017-10-30T19:16:10.719Z,41.00
2017-10-30T19:18:39.184Z,40.50
2017-10-30T19:21:07.238Z,41.40
2017-10-30T19:23:35.697Z,41.50
2017-10-30T19:26:04.548Z,42.00
2017-10-30T19:28:32.608Z,42.10
2017-10-30T19:33:31.499Z,42.40
2017-10-30T19:35:59.563Z,42.40
2017-10-30T19:38:28.403Z,42.90
2017-10-30T19:40:57.227Z,42.80
2017-10-30T19:43:26.074Z,43.20
2017-10-30T19:45:54.121Z,43.60
2017-10-30T19:48:22.242Z,43.40
2017-10-30T19:50:50.293Z,43.10
2017-10-30T19:53:18.389Z,43.30
2017-10-30T19:55:46.450Z,43.70
2017-10-30T19:58:15.638Z,44.00
2017-10-30T20:00:43.710Z,43.80
2017-10-30T20:05:46.858Z,44.40
2017-10-30T20:08:21.403Z,44.30
2017-10-30T20:10:55.216Z,44.60
2017-10-30T20:13:23.654Z,44.70
2017-10-30T20:15:51.697Z,44.70
2017-10-30T20:18:19.762Z,45.40
2017-10-30T20:20:47.827Z,45.10
2017-10-30T20:23:15.870Z,45.80
2017-10-30T20:25:43.958Z,45.40
2017-10-30T20:28:12.742Z,46.20
2017-10-30T20:30:40.823Z,46.00
2017-10-30T20:33:09.633Z,45.50
2017-10-30T20:35:37.685Z,45.60
2017-10-30T20:38:06.521Z,45.20
2017-10-30T20:40:35.347Z,45.10
2017-10-30T20:43:03.393Z,45.80
2017-10-30T20:45:31.836Z,46.20
2017-10-30T20:47:59.994Z,46.50
2017-10-30T20:50:28.038Z,45.90
2017-10-30T20:52:56.091Z,46.40
2017-10-30T20:55:24.554Z,47.00
2017-10-30T20:57:52.606Z,47.00
2017-10-30T21:00:21.571Z,46.90
2017-10-30T21:02:50.365Z,48.00
2017-10-30T21:05:19.564Z,47.60
2017-10-30T21:07:47.602Z,48.20
2017-10-30T21:10:16.438Z,48.60
2017-10-30T21:12:45.250Z,48.90
2017-10-30T21:15:13.302Z,48.30
2017-10-30T21:17:42.126Z,48.00
2017-10-30T21:22:41.014Z,49.50
2017-10-30T21:25:09.065Z,49.50
2017-10-30T21:27:37.143Z,49.00
2017-10-30T21:30:06.330Z,50.20
2017-10-30T21:32:34.386Z,50.70
2017-10-30T21:35:02.459Z,50.00
2017-10-30T21:37:30.511Z,51.20
2017-10-30T21:39:59.342Z,51.90
2017-10-30T21:42:27.531Z,54.70
2017-10-30T21:44:55.601Z,54.60
2017-10-30T21:47:24.050Z,53.80
2017-10-30T21:49:52.102Z,55.50
2017-10-30T21:52:20.174Z,57.00
2017-10-30T21:54:48.230Z,55.00
2017-10-30T21:57:17.038Z,56.50
2017-10-30T21:59:45.098Z,56.10
2017-10-30T22:04:42.486Z,56.10
2017-10-30T22:07:10.538Z,56.50
2017-10-30T22:09:39.394Z,59.90
2017-10-30T22:12:07.462Z,59.90
2017-10-30T22:14:35.898Z,59.00
2017-10-30T22:17:03.963Z,59.40
2017-10-30T22:19:32.025Z,60.40
2017-10-30T22:22:00.861Z,62.10
2017-10-30T22:24:28.909Z,60.10
2017-10-30T22:26:56.974Z,60.60
2017-10-30T22:29:25.022Z,59.20
2017-10-30T22:31:53.851Z,61.80
2017-10-30T22:34:22.294Z,61.90
2017-10-30T22:36:51.131Z,63.50
2017-10-30T22:39:19.177Z,63.40
2017-10-30T22:41:47.226Z,60.90
2017-10-30T22:44:16.062Z,63.20
2017-10-30T22:46:44.112Z,63.10
2017-10-30T22:49:12.186Z,63.30
2017-10-30T22:51:40.253Z,64.40
2017-10-30T22:54:08.326Z,64.50
2017-10-30T22:56:36.394Z,63.80
2017-10-30T22:59:04.454Z,64.30
2017-10-30T23:01:33.272Z,63.90
2017-10-30T23:04:01.334Z,63.80
2017-10-30T23:06:29.399Z,64.30
2017-10-30T23:08:57.447Z,65.50
2017-10-30T23:11:26.274Z,63.50
2017-10-30T23:13:54.328Z,65.10
2017-10-30T23:16:22.398Z,66.00
2017-10-30T23:18:50.450Z,66.50
2017-10-30T23:21:19.271Z,65.30
2017-10-30T23:23:47.334Z,63.40
2017-10-30T23:26:15.382Z,63.90
2017-10-30T23:28:44.214Z,66.60
2017-10-30T23:31:12.258Z,64.90
2017-10-30T23:33:40.318Z,63.30
2017-10-30T23:36:09.517Z,62.80
2017-10-30T23:38:38.338Z,65.40
2017-10-30T23:41:06.807Z,66.40
2017-10-30T23:43:34.863Z,65.40
2017-10-30T23:46:03.705Z,66.30
2017-10-30T23:48:31.755Z,65.20
2017-10-30T23:50:59.806Z,65.40
2017-10-30T23:53:27.874Z,66.70
2017-10-30T23:55:55.938Z,67.40
2017-10-30T23:58:24.766Z,66.40
